sensor_id;sensor_type;location;lat;lon;timestamp;P1;durP1;ratioP1;P2;durP2;ratioP2
4428;SDS011;2227;47.810;8.810;2024-01-30T04:48:58;685.60;;;391.40;;
4428;SDS011;2227;47.810;8.810;2024-01-30T04:51:25;693.30;;;393.02;;
4428;SDS011;2227;47.810;8.810;2024-01-30T04:53:52;685.58;;;390.27;;
4428;SDS011;2227;47.810;8.810;2024-01-30T04:56:18;680.83;;;393.13;;
4428;SDS011;2227;47.810;8.810;2024-01-30T04:58:45;675.42;;;387.75;;
4428;SDS011;2227;47.810;8.810;2024-01-30T05:01:15;679.20;;;385.73;;
4428;SDS011;2227;47.810;8.810;2024-01-30T05:03:43;675.28;;;388.42;;
4428;SDS011;2227;47.810;8.810;2024-01-30T05:06:10;676.53;;;386.02;;
4428;SDS011;2227;47.810;8.810;2024-01-30T05:08:37;672.13;;;382.47;;
4428;SDS011;2227;47.810;8.810;2024-01-30T05:11:05;675.25;;;386.10;;
4428;SDS011;2227;47.810;8.810;2024-01-30T05:13:32;674.80;;;388.55;;
4428;SDS011;2227;47.810;8.810;2024-01-30T05:15:59;676.30;;;385.93;;
4428;SDS011;2227;47.810;8.810;2024-01-30T05:18:28;676.47;;;388.67;;
4428;SDS011;2227;47.810;8.810;2024-01-30T05:20:55;679.60;;;393.25;;
4428;SDS011;2227;47.810;8.810;2024-01-30T05:23:21;677.13;;;389.63;;
4428;SDS011;2227;47.810;8.810;2024-01-30T05:25:48;679.33;;;390.90;;
4428;SDS011;2227;47.810;8.810;2024-01-30T05:28:15;679.15;;;395.55;;
4428;SDS011;2227;47.810;8.810;2024-01-30T05:30:42;675.90;;;389.33;;
4428;SDS011;2227;47.810;8.810;2024-01-30T05:33:09;671.40;;;387.23;;
4428;SDS011;2227;47.810;8.810;2024-01-30T05:35:38;669.15;;;387.13;;
4428;SDS011;2227;47.810;8.810;2024-01-30T05:38:05;669.88;;;386.30;;
4428;SDS011;2227;47.810;8.810;2024-01-30T05:40:32;667.00;;;380.65;;
4428;SDS011;2227;47.810;8.810;2024-01-30T05:42:59;667.50;;;381.90;;
4428;SDS011;2227;47.810;8.810;2024-01-30T05:45:27;664.53;;;381.00;;
4428;SDS011;2227;47.810;8.810;2024-01-30T05:47:54;669.35;;;388.63;;
4428;SDS011;2227;47.810;8.810;2024-01-30T05:50:21;666.25;;;379.30;;
4428;SDS011;2227;47.810;8.810;2024-01-30T05:52:49;667.75;;;388.75;;
4428;SDS011;2227;47.810;8.810;2024-01-30T05:55:16;660.80;;;383.35;;
4428;SDS011;2227;47.810;8.810;2024-01-30T05:57:43;662.35;;;386.05;;
4428;SDS011;2227;47.810;8.810;2024-01-30T06:00:10;655.45;;;385.45;;
4428;SDS011;2227;47.810;8.810;2024-01-30T06:02:37;654.80;;;382.58;;
4428;SDS011;2227;47.810;8.810;2024-01-30T06:05:05;655.20;;;380.58;;
4428;SDS011;2227;47.810;8.810;2024-01-30T06:07:32;654.50;;;380.55;;
4428;SDS011;2227;47.810;8.810;2024-01-30T06:10:02;661.78;;;383.42;;
4428;SDS011;2227;47.810;8.810;2024-01-30T06:12:30;658.03;;;386.45;;
4428;SDS011;2227;47.810;8.810;2024-01-30T06:14:57;660.37;;;382.03;;
4428;SDS011;2227;47.810;8.810;2024-01-30T06:17:23;663.97;;;386.38;;
4428;SDS011;2227;47.810;8.810;2024-01-30T06:19:50;663.75;;;384.80;;
4428;SDS011;2227;47.810;8.810;2024-01-30T06:22:17;667.05;;;386.45;;
4428;SDS011;2227;47.810;8.810;2024-01-30T06:24:44;663.10;;;384.40;;
4428;SDS011;2227;47.810;8.810;2024-01-30T06:27:11;666.35;;;386.58;;
4428;SDS011;2227;47.810;8.810;2024-01-30T06:29:38;660.08;;;382.67;;
4428;SDS011;2227;47.810;8.810;2024-01-30T06:32:05;658.65;;;383.95;;
4428;SDS011;2227;47.810;8.810;2024-01-30T06:34:32;661.15;;;388.70;;
4428;SDS011;2227;47.810;8.810;2024-01-30T06:36:59;659.67;;;385.50;;
4428;SDS011;2227;47.810;8.810;2024-01-30T06:39:26;663.50;;;389.20;;
4428;SDS011;2227;47.810;8.810;2024-01-30T06:41:53;665.17;;;385.27;;
4428;SDS011;2227;47.810;8.810;2024-01-30T06:44:19;664.13;;;387.90;;
4428;SDS011;2227;47.810;8.810;2024-01-30T06:46:46;663.33;;;387.80;;
4428;SDS011;2227;47.810;8.810;2024-01-30T06:49:13;666.63;;;389.52;;
4428;SDS011;2227;47.810;8.810;2024-01-30T06:51:40;662.47;;;390.65;;
4428;SDS011;2227;47.810;8.810;2024-01-30T06:54:07;666.75;;;388.48;;
4428;SDS011;2227;47.810;8.810;2024-01-30T06:56:34;668.05;;;388.10;;
4428;SDS011;2227;47.810;8.810;2024-01-30T06:59:02;676.50;;;392.05;;
4428;SDS011;2227;47.810;8.810;2024-01-30T07:01:28;666.47;;;389.23;;
4428;SDS011;2227;47.810;8.810;2024-01-30T07:03:56;664.42;;;389.08;;
4428;SDS011;2227;47.810;8.810;2024-01-30T07:06:24;666.72;;;389.80;;
4428;SDS011;2227;47.810;8.810;2024-01-30T07:08:51;669.45;;;398.95;;
4428;SDS011;2227;47.810;8.810;2024-01-30T07:11:21;668.38;;;388.55;;
4428;SDS011;2227;47.810;8.810;2024-01-30T07:13:50;668.45;;;388.58;;
4428;SDS011;2227;47.810;8.810;2024-01-30T07:16:17;675.03;;;390.20;;
4428;SDS011;2227;47.810;8.810;2024-01-30T07:18:44;671.33;;;391.65;;
4428;SDS011;2227;47.810;8.810;2024-01-30T07:21:11;678.10;;;392.15;;
4428;SDS011;2227;47.810;8.810;2024-01-30T07:23:38;679.40;;;395.77;;
4428;SDS011;2227;47.810;8.810;2024-01-30T07:26:05;679.53;;;396.67;;
4428;SDS011;2227;47.810;8.810;2024-01-30T07:28:35;685.10;;;395.65;;
4428;SDS011;2227;47.810;8.810;2024-01-30T07:31:02;685.30;;;399.65;;
4428;SDS011;2227;47.810;8.810;2024-01-30T07:33:29;687.88;;;401.95;;
4428;SDS011;2227;47.810;8.810;2024-01-30T07:35:56;682.50;;;401.15;;
4428;SDS011;2227;47.810;8.810;2024-01-30T07:38:24;687.88;;;402.35;;
4428;SDS011;2227;47.810;8.810;2024-01-30T07:40:50;688.10;;;409.42;;
4428;SDS011;2227;47.810;8.810;2024-01-30T07:43:18;687.08;;;414.23;;
4428;SDS011;2227;47.810;8.810;2024-01-30T07:45:46;699.85;;;416.10;;
4428;SDS011;2227;47.810;8.810;2024-01-30T07:48:13;688.90;;;413.73;;
4428;SDS011;2227;47.810;8.810;2024-01-30T07:50:40;689.75;;;412.65;;
4428;SDS011;2227;47.810;8.810;2024-01-30T07:53:07;689.33;;;416.15;;
4428;SDS011;2227;47.810;8.810;2024-01-30T07:55:34;688.90;;;412.30;;
4428;SDS011;2227;47.810;8.810;2024-01-30T07:58:01;693.67;;;417.30;;
4428;SDS011;2227;47.810;8.810;2024-01-30T08:00:28;696.93;;;416.20;;
4428;SDS011;2227;47.810;8.810;2024-01-30T08:02:55;696.20;;;420.17;;
4428;SDS011;2227;47.810;8.810;2024-01-30T08:05:23;696.85;;;418.42;;
4428;SDS011;2227;47.810;8.810;2024-01-30T08:07:50;694.58;;;414.77;;
4428;SDS011;2227;47.810;8.810;2024-01-30T08:10:17;695.50;;;419.13;;
4428;SDS011;2227;47.810;8.810;2024-01-30T08:12:45;691.15;;;413.27;;
4428;SDS011;2227;47.810;8.810;2024-01-30T08:15:12;693.13;;;415.52;;
4428;SDS011;2227;47.810;8.810;2024-01-30T08:17:39;699.47;;;419.35;;
4428;SDS011;2227;47.810;8.810;2024-01-30T08:20:06;698.07;;;420.80;;
4428;SDS011;2227;47.810;8.810;2024-01-30T08:22:35;695.53;;;423.95;;
4428;SDS011;2227;47.810;8.810;2024-01-30T08:25:02;707.33;;;426.93;;
4428;SDS011;2227;47.810;8.810;2024-01-30T08:27:29;703.10;;;423.00;;
4428;SDS011;2227;47.810;8.810;2024-01-30T08:29:56;703.63;;;430.00;;
4428;SDS011;2227;47.810;8.810;2024-01-30T08:32:23;707.40;;;425.75;;
4428;SDS011;2227;47.810;8.810;2024-01-30T08:34:50;711.28;;;430.77;;
4428;SDS011;2227;47.810;8.810;2024-01-30T08:37:17;709.67;;;431.30;;
4428;SDS011;2227;47.810;8.810;2024-01-30T08:39:44;707.28;;;428.08;;
4428;SDS011;2227;47.810;8.810;2024-01-30T08:42:11;717.55;;;429.30;;
4428;SDS011;2227;47.810;8.810;2024-01-30T08:44:38;714.35;;;434.50;;
4428;SDS011;2227;47.810;8.810;2024-01-30T08:47:05;708.97;;;432.08;;
4428;SDS011;2227;47.810;8.810;2024-01-30T08:49:32;710.75;;;434.17;;
4428;SDS011;2227;47.810;8.810;2024-01-30T08:51:59;706.67;;;432.13;;
4428;SDS011;2227;47.810;8.810;2024-01-30T08:54:26;708.88;;;439.58;;
4428;SDS011;2227;47.810;8.810;2024-01-30T08:56:53;702.78;;;438.42;;
4428;SDS011;2227;47.810;8.810;2024-01-30T08:59:19;709.38;;;444.25;;
4428;SDS011;2227;47.810;8.810;2024-01-30T09:01:46;699.85;;;442.65;;
4428;SDS011;2227;47.810;8.810;2024-01-30T09:04:28;703.27;;;445.30;;
4428;SDS011;2227;47.810;8.810;2024-01-30T09:06:55;704.22;;;447.98;;
4428;SDS011;2227;47.810;8.810;2024-01-30T09:09:22;706.97;;;450.38;;
4428;SDS011;2227;47.810;8.810;2024-01-30T09:11:49;702.08;;;453.10;;
4428;SDS011;2227;47.810;8.810;2024-01-30T09:14:16;706.08;;;449.75;;
4428;SDS011;2227;47.810;8.810;2024-01-30T09:16:42;706.58;;;454.20;;
4428;SDS011;2227;47.810;8.810;2024-01-30T09:19:09;707.67;;;456.77;;
4428;SDS011;2227;47.810;8.810;2024-01-30T09:21:36;704.38;;;457.73;;
4428;SDS011;2227;47.810;8.810;2024-01-30T09:24:03;705.20;;;458.00;;
4428;SDS011;2227;47.810;8.810;2024-01-30T09:26:30;707.03;;;474.00;;
4428;SDS011;2227;47.810;8.810;2024-01-30T09:28:57;714.05;;;472.73;;
4428;SDS011;2227;47.810;8.810;2024-01-30T09:31:24;714.05;;;481.10;;
4428;SDS011;2227;47.810;8.810;2024-01-30T09:33:51;712.88;;;479.75;;
4428;SDS011;2227;47.810;8.810;2024-01-30T09:36:20;690.92;;;495.30;;
4428;SDS011;2227;47.810;8.810;2024-01-30T09:38:48;693.72;;;496.52;;
4428;SDS011;2227;47.810;8.810;2024-01-30T09:41:15;696.80;;;494.77;;
4428;SDS011;2227;47.810;8.810;2024-01-30T09:43:42;700.40;;;494.20;;
4428;SDS011;2227;47.810;8.810;2024-01-30T09:46:17;697.65;;;506.23;;
4428;SDS011;2227;47.810;8.810;2024-01-30T09:48:47;698.17;;;504.45;;
4428;SDS011;2227;47.810;8.810;2024-01-30T09:51:15;698.35;;;509.05;;
4428;SDS011;2227;47.810;8.810;2024-01-30T09:53:43;698.95;;;509.88;;
4428;SDS011;2227;47.810;8.810;2024-01-30T09:56:12;698.63;;;517.58;;
4428;SDS011;2227;47.810;8.810;2024-01-30T09:58:39;698.78;;;527.58;;
4428;SDS011;2227;47.810;8.810;2024-01-30T10:01:06;699.95;;;532.75;;
4428;SDS011;2227;47.810;8.810;2024-01-30T10:03:33;699.67;;;533.93;;
4428;SDS011;2227;47.810;8.810;2024-01-30T10:06:00;698.30;;;534.25;;
4428;SDS011;2227;47.810;8.810;2024-01-30T10:08:28;701.28;;;535.03;;
4428;SDS011;2227;47.810;8.810;2024-01-30T10:10:56;705.42;;;541.05;;
4428;SDS011;2227;47.810;8.810;2024-01-30T10:13:25;706.80;;;538.10;;
4428;SDS011;2227;47.810;8.810;2024-01-30T10:15:52;706.25;;;543.15;;
4428;SDS011;2227;47.810;8.810;2024-01-30T10:18:19;707.95;;;537.10;;
4428;SDS011;2227;47.810;8.810;2024-01-30T10:20:46;709.92;;;534.05;;
4428;SDS011;2227;47.810;8.810;2024-01-30T10:23:13;707.10;;;532.30;;
4428;SDS011;2227;47.810;8.810;2024-01-30T10:25:40;706.78;;;532.85;;
4428;SDS011;2227;47.810;8.810;2024-01-30T10:28:08;708.75;;;532.00;;
4428;SDS011;2227;47.810;8.810;2024-01-30T10:30:35;709.97;;;535.10;;
4428;SDS011;2227;47.810;8.810;2024-01-30T10:33:02;708.45;;;539.75;;
4428;SDS011;2227;47.810;8.810;2024-01-30T10:35:29;709.40;;;537.95;;
4428;SDS011;2227;47.810;8.810;2024-01-30T10:37:56;710.63;;;535.37;;
4428;SDS011;2227;47.810;8.810;2024-01-30T10:40:27;707.63;;;532.15;;
4428;SDS011;2227;47.810;8.810;2024-01-30T10:42:55;710.33;;;534.55;;
4428;SDS011;2227;47.810;8.810;2024-01-30T10:45:23;713.85;;;537.65;;
4428;SDS011;2227;47.810;8.810;2024-01-30T10:47:54;712.97;;;534.58;;
4428;SDS011;2227;47.810;8.810;2024-01-30T10:50:25;709.10;;;532.28;;
4428;SDS011;2227;47.810;8.810;2024-01-30T10:52:53;709.50;;;534.40;;
4428;SDS011;2227;47.810;8.810;2024-01-30T10:55:21;721.10;;;518.80;;
4428;SDS011;2227;47.810;8.810;2024-01-30T10:57:50;724.92;;;526.65;;
4428;SDS011;2227;47.810;8.810;2024-01-30T11:00:17;725.40;;;532.10;;
4428;SDS011;2227;47.810;8.810;2024-01-30T11:02:48;724.15;;;550.95;;
4428;SDS011;2227;47.810;8.810;2024-01-30T11:05:22;724.78;;;553.22;;
4428;SDS011;2227;47.810;8.810;2024-01-30T11:07:58;728.40;;;566.70;;
4428;SDS011;2227;47.810;8.810;2024-01-30T11:10:25;728.27;;;562.33;;
4428;SDS011;2227;47.810;8.810;2024-01-30T11:12:52;728.92;;;567.42;;
4428;SDS011;2227;47.810;8.810;2024-01-30T11:15:19;728.00;;;563.65;;
4428;SDS011;2227;47.810;8.810;2024-01-30T11:20:27;730.13;;;570.17;;
4428;SDS011;2227;47.810;8.810;2024-01-30T11:22:59;727.25;;;566.05;;
4428;SDS011;2227;47.810;8.810;2024-01-30T11:25:32;730.20;;;566.70;;
4428;SDS011;2227;47.810;8.810;2024-01-30T11:27:59;730.13;;;568.58;;
4428;SDS011;2227;47.810;8.810;2024-01-30T11:30:32;727.65;;;564.25;;
4428;SDS011;2227;47.810;8.810;2024-01-30T11:33:00;729.67;;;560.22;;
4428;SDS011;2227;47.810;8.810;2024-01-30T11:35:36;724.92;;;559.40;;
4428;SDS011;2227;47.810;8.810;2024-01-30T11:38:06;726.05;;;559.83;;
4428;SDS011;2227;47.810;8.810;2024-01-30T11:40:34;725.30;;;559.50;;
4428;SDS011;2227;47.810;8.810;2024-01-30T11:43:04;730.17;;;558.45;;
4428;SDS011;2227;47.810;8.810;2024-01-30T11:45:32;726.72;;;556.05;;
4428;SDS011;2227;47.810;8.810;2024-01-30T11:47:59;724.88;;;555.92;;
4428;SDS011;2227;47.810;8.810;2024-01-30T11:50:30;728.30;;;559.55;;
4428;SDS011;2227;47.810;8.810;2024-01-30T11:52:58;729.15;;;563.35;;
4428;SDS011;2227;47.810;8.810;2024-01-30T11:55:28;725.38;;;559.10;;
4428;SDS011;2227;47.810;8.810;2024-01-30T11:58:00;730.75;;;570.63;;
4428;SDS011;2227;47.810;8.810;2024-01-30T12:00:27;731.25;;;573.22;;
4428;SDS011;2227;47.810;8.810;2024-01-30T12:02:55;731.87;;;575.23;;
4428;SDS011;2227;47.810;8.810;2024-01-30T12:05:23;730.55;;;585.53;;
4428;SDS011;2227;47.810;8.810;2024-01-30T12:07:53;727.57;;;578.93;;
4428;SDS011;2227;47.810;8.810;2024-01-30T12:10:21;732.28;;;586.63;;
4428;SDS011;2227;47.810;8.810;2024-01-30T12:12:49;738.05;;;599.65;;
4428;SDS011;2227;47.810;8.810;2024-01-30T12:15:16;742.67;;;608.97;;
4428;SDS011;2227;47.810;8.810;2024-01-30T12:17:45;743.53;;;614.13;;
4428;SDS011;2227;47.810;8.810;2024-01-30T12:20:17;743.75;;;620.50;;
4428;SDS011;2227;47.810;8.810;2024-01-30T12:22:45;744.70;;;630.50;;
4428;SDS011;2227;47.810;8.810;2024-01-30T12:25:14;743.97;;;633.05;;
4428;SDS011;2227;47.810;8.810;2024-01-30T12:27:42;746.03;;;651.85;;
4428;SDS011;2227;47.810;8.810;2024-01-30T12:30:11;758.70;;;675.67;;
4428;SDS011;2227;47.810;8.810;2024-01-30T12:32:46;778.17;;;694.70;;
4428;SDS011;2227;47.810;8.810;2024-01-30T12:35:16;801.05;;;717.45;;
4428;SDS011;2227;47.810;8.810;2024-01-30T12:37:44;808.55;;;724.63;;
4428;SDS011;2227;47.810;8.810;2024-01-30T12:40:13;806.67;;;723.28;;
4428;SDS011;2227;47.810;8.810;2024-01-30T12:42:41;799.85;;;716.65;;
4428;SDS011;2227;47.810;8.810;2024-01-30T12:45:17;798.63;;;715.38;;
4428;SDS011;2227;47.810;8.810;2024-01-30T12:47:49;801.28;;;717.83;;
4428;SDS011;2227;47.810;8.810;2024-01-30T12:50:16;802.20;;;718.60;;
4428;SDS011;2227;47.810;8.810;2024-01-30T12:52:43;807.78;;;724.08;;
4428;SDS011;2227;47.810;8.810;2024-01-30T12:55:15;800.67;;;717.17;;
4428;SDS011;2227;47.810;8.810;2024-01-30T12:57:42;787.20;;;705.50;;
4428;SDS011;2227;47.810;8.810;2024-01-30T13:00:09;769.83;;;686.80;;
4428;SDS011;2227;47.810;8.810;2024-01-30T13:02:36;757.50;;;676.47;;
4428;SDS011;2227;47.810;8.810;2024-01-30T13:05:03;763.20;;;682.47;;
4428;SDS011;2227;47.810;8.810;2024-01-30T13:07:31;759.22;;;676.92;;
4428;SDS011;2227;47.810;8.810;2024-01-30T13:09:58;757.92;;;675.72;;
4428;SDS011;2227;47.810;8.810;2024-01-30T13:12:29;752.08;;;670.53;;
4428;SDS011;2227;47.810;8.810;2024-01-30T13:14:58;748.40;;;668.30;;
4428;SDS011;2227;47.810;8.810;2024-01-30T13:17:27;747.50;;;668.13;;
4428;SDS011;2227;47.810;8.810;2024-01-30T13:19:54;755.88;;;673.72;;
4428;SDS011;2227;47.810;8.810;2024-01-30T13:22:27;747.47;;;666.08;;
4428;SDS011;2227;47.810;8.810;2024-01-30T13:24:54;748.28;;;667.08;;
4428;SDS011;2227;47.810;8.810;2024-01-30T13:27:21;750.47;;;669.22;;
4428;SDS011;2227;47.810;8.810;2024-01-30T13:29:47;748.05;;;667.30;;
4428;SDS011;2227;47.810;8.810;2024-01-30T13:32:14;746.50;;;665.08;;
4428;SDS011;2227;47.810;8.810;2024-01-30T13:34:41;749.65;;;668.08;;
4428;SDS011;2227;47.810;8.810;2024-01-30T13:37:09;737.13;;;657.08;;
4428;SDS011;2227;47.810;8.810;2024-01-30T13:39:36;739.80;;;660.05;;
4428;SDS011;2227;47.810;8.810;2024-01-30T13:42:05;733.83;;;654.10;;
4428;SDS011;2227;47.810;8.810;2024-01-30T13:44:32;738.13;;;658.33;;
4428;SDS011;2227;47.810;8.810;2024-01-30T13:46:59;732.53;;;652.72;;
4428;SDS011;2227;47.810;8.810;2024-01-30T13:49:25;737.95;;;658.53;;
4428;SDS011;2227;47.810;8.810;2024-01-30T13:51:55;734.80;;;654.88;;
4428;SDS011;2227;47.810;8.810;2024-01-30T13:54:23;729.50;;;649.42;;
4428;SDS011;2227;47.810;8.810;2024-01-30T13:56:50;731.10;;;651.35;;
4428;SDS011;2227;47.810;8.810;2024-01-30T13:59:16;729.15;;;649.90;;
4428;SDS011;2227;47.810;8.810;2024-01-30T14:01:49;739.72;;;660.33;;
4428;SDS011;2227;47.810;8.810;2024-01-30T14:04:17;744.25;;;664.75;;
4428;SDS011;2227;47.810;8.810;2024-01-30T14:06:44;749.58;;;670.05;;
4428;SDS011;2227;47.810;8.810;2024-01-30T14:09:22;741.90;;;662.70;;
4428;SDS011;2227;47.810;8.810;2024-01-30T14:11:49;751.78;;;672.67;;
4428;SDS011;2227;47.810;8.810;2024-01-30T14:14:15;751.45;;;671.90;;
4428;SDS011;2227;47.810;8.810;2024-01-30T14:16:42;755.50;;;674.10;;
4428;SDS011;2227;47.810;8.810;2024-01-30T14:19:09;762.00;;;680.33;;
4428;SDS011;2227;47.810;8.810;2024-01-30T14:21:36;766.80;;;684.95;;
4428;SDS011;2227;47.810;8.810;2024-01-30T14:24:03;761.08;;;678.83;;
4428;SDS011;2227;47.810;8.810;2024-01-30T14:26:30;755.28;;;674.58;;
4428;SDS011;2227;47.810;8.810;2024-01-30T14:28:57;754.43;;;673.00;;
4428;SDS011;2227;47.810;8.810;2024-01-30T14:31:24;750.50;;;670.45;;
4428;SDS011;2227;47.810;8.810;2024-01-30T14:33:51;745.53;;;665.75;;
4428;SDS011;2227;47.810;8.810;2024-01-30T14:36:18;755.83;;;675.35;;
4428;SDS011;2227;47.810;8.810;2024-01-30T14:38:46;744.07;;;663.43;;
4428;SDS011;2227;47.810;8.810;2024-01-30T14:41:13;747.10;;;666.53;;
4428;SDS011;2227;47.810;8.810;2024-01-30T14:43:40;742.30;;;662.03;;
4428;SDS011;2227;47.810;8.810;2024-01-30T14:46:07;733.08;;;653.33;;
4428;SDS011;2227;47.810;8.810;2024-01-30T14:48:34;737.30;;;657.55;;
4428;SDS011;2227;47.810;8.810;2024-01-30T14:51:01;732.37;;;652.97;;
4428;SDS011;2227;47.810;8.810;2024-01-30T14:53:28;736.85;;;657.35;;
4428;SDS011;2227;47.810;8.810;2024-01-30T14:55:54;735.53;;;656.30;;
4428;SDS011;2227;47.810;8.810;2024-01-30T14:58:21;731.60;;;651.72;;
4428;SDS011;2227;47.810;8.810;2024-01-30T15:00:48;740.17;;;659.80;;
4428;SDS011;2227;47.810;8.810;2024-01-30T15:03:15;730.65;;;651.08;;
4428;SDS011;2227;47.810;8.810;2024-01-30T15:05:42;732.20;;;652.42;;
4428;SDS011;2227;47.810;8.810;2024-01-30T15:08:09;732.03;;;651.50;;
4428;SDS011;2227;47.810;8.810;2024-01-30T15:10:36;729.42;;;648.67;;
4428;SDS011;2227;47.810;8.810;2024-01-30T15:13:03;728.85;;;647.00;;
4428;SDS011;2227;47.810;8.810;2024-01-30T15:15:30;722.38;;;634.67;;
4428;SDS011;2227;47.810;8.810;2024-01-30T15:17:57;728.97;;;635.50;;
4428;SDS011;2227;47.810;8.810;2024-01-30T15:20:25;719.25;;;613.15;;
4428;SDS011;2227;47.810;8.810;2024-01-30T15:22:51;719.15;;;613.83;;
4428;SDS011;2227;47.810;8.810;2024-01-30T15:25:18;719.00;;;605.85;;
4428;SDS011;2227;47.810;8.810;2024-01-30T15:27:45;715.33;;;606.37;;
4428;SDS011;2227;47.810;8.810;2024-01-30T15:30:12;714.75;;;598.13;;
4428;SDS011;2227;47.810;8.810;2024-01-30T15:32:39;710.93;;;591.03;;
4428;SDS011;2227;47.810;8.810;2024-01-30T15:35:06;707.90;;;591.67;;
4428;SDS011;2227;47.810;8.810;2024-01-30T15:37:33;706.97;;;584.60;;
4428;SDS011;2227;47.810;8.810;2024-01-30T15:40:00;709.60;;;590.13;;
4428;SDS011;2227;47.810;8.810;2024-01-30T15:42:28;714.95;;;590.78;;
4428;SDS011;2227;47.810;8.810;2024-01-30T15:44:55;717.67;;;590.90;;
4428;SDS011;2227;47.810;8.810;2024-01-30T15:47:22;710.05;;;588.97;;
4428;SDS011;2227;47.810;8.810;2024-01-30T15:49:48;713.47;;;587.25;;
4428;SDS011;2227;47.810;8.810;2024-01-30T15:52:15;712.90;;;586.05;;
4428;SDS011;2227;47.810;8.810;2024-01-30T15:54:43;707.10;;;585.83;;
4428;SDS011;2227;47.810;8.810;2024-01-30T15:57:10;710.65;;;582.85;;
4428;SDS011;2227;47.810;8.810;2024-01-30T15:59:37;707.92;;;579.70;;
4428;SDS011;2227;47.810;8.810;2024-01-30T16:02:04;709.83;;;585.00;;
4428;SDS011;2227;47.810;8.810;2024-01-30T16:04:32;708.92;;;588.28;;
4428;SDS011;2227;47.810;8.810;2024-01-30T16:06:59;701.83;;;574.00;;
4428;SDS011;2227;47.810;8.810;2024-01-30T16:09:26;709.47;;;579.70;;
4428;SDS011;2227;47.810;8.810;2024-01-30T16:11:52;704.65;;;573.92;;
4428;SDS011;2227;47.810;8.810;2024-01-30T16:14:19;708.67;;;574.28;;
4428;SDS011;2227;47.810;8.810;2024-01-30T16:16:46;708.40;;;574.88;;
4428;SDS011;2227;47.810;8.810;2024-01-30T16:19:13;708.85;;;577.63;;
4428;SDS011;2227;47.810;8.810;2024-01-30T16:21:39;709.90;;;574.23;;
4428;SDS011;2227;47.810;8.810;2024-01-30T16:24:09;709.13;;;571.00;;
4428;SDS011;2227;47.810;8.810;2024-01-30T16:26:36;708.30;;;566.45;;
4428;SDS011;2227;47.810;8.810;2024-01-30T16:29:03;705.25;;;563.50;;
4428;SDS011;2227;47.810;8.810;2024-01-30T16:31:29;704.25;;;564.85;;
4428;SDS011;2227;47.810;8.810;2024-01-30T16:33:56;710.00;;;567.10;;
4428;SDS011;2227;47.810;8.810;2024-01-30T16:36:26;705.50;;;565.28;;
4428;SDS011;2227;47.810;8.810;2024-01-30T16:38:52;704.88;;;557.55;;
4428;SDS011;2227;47.810;8.810;2024-01-30T16:41:19;704.45;;;559.92;;
4428;SDS011;2227;47.810;8.810;2024-01-30T16:43:47;705.72;;;559.92;;
4428;SDS011;2227;47.810;8.810;2024-01-30T16:46:14;703.93;;;552.43;;
4428;SDS011;2227;47.810;8.810;2024-01-30T16:48:42;705.17;;;556.35;;
4428;SDS011;2227;47.810;8.810;2024-01-30T16:51:09;706.40;;;553.60;;
4428;SDS011;2227;47.810;8.810;2024-01-30T16:53:35;707.25;;;553.08;;
4428;SDS011;2227;47.810;8.810;2024-01-30T16:56:03;704.47;;;556.72;;
4428;SDS011;2227;47.810;8.810;2024-01-30T16:58:30;705.78;;;553.38;;
4428;SDS011;2227;47.810;8.810;2024-01-30T17:00:57;703.20;;;550.20;;
4428;SDS011;2227;47.810;8.810;2024-01-30T17:03:24;701.38;;;550.00;;
4428;SDS011;2227;47.810;8.810;2024-01-30T17:05:50;703.70;;;547.22;;
4428;SDS011;2227;47.810;8.810;2024-01-30T17:08:21;703.85;;;545.72;;
4428;SDS011;2227;47.810;8.810;2024-01-30T17:10:47;706.28;;;554.80;;
4428;SDS011;2227;47.810;8.810;2024-01-30T17:13:14;707.28;;;549.83;;
4428;SDS011;2227;47.810;8.810;2024-01-30T17:15:41;706.70;;;553.13;;
4428;SDS011;2227;47.810;8.810;2024-01-30T17:18:08;704.63;;;548.22;;
4428;SDS011;2227;47.810;8.810;2024-01-30T17:20:36;707.75;;;553.85;;
4428;SDS011;2227;47.810;8.810;2024-01-30T17:23:03;703.15;;;551.58;;
4428;SDS011;2227;47.810;8.810;2024-01-30T17:25:34;710.85;;;556.60;;
4428;SDS011;2227;47.810;8.810;2024-01-30T17:28:01;708.33;;;554.13;;
4428;SDS011;2227;47.810;8.810;2024-01-30T17:30:28;709.88;;;555.90;;
4428;SDS011;2227;47.810;8.810;2024-01-30T17:32:55;711.33;;;557.20;;
4428;SDS011;2227;47.810;8.810;2024-01-30T17:35:22;714.00;;;562.33;;
4428;SDS011;2227;47.810;8.810;2024-01-30T17:37:50;708.13;;;554.70;;
4428;SDS011;2227;47.810;8.810;2024-01-30T17:40:16;709.10;;;555.63;;
4428;SDS011;2227;47.810;8.810;2024-01-30T17:42:43;709.13;;;557.75;;
4428;SDS011;2227;47.810;8.810;2024-01-30T17:45:10;712.67;;;554.00;;
4428;SDS011;2227;47.810;8.810;2024-01-30T17:47:37;713.55;;;560.17;;
4428;SDS011;2227;47.810;8.810;2024-01-30T17:50:05;710.00;;;554.72;;
4428;SDS011;2227;47.810;8.810;2024-01-30T17:52:32;711.60;;;553.35;;
4428;SDS011;2227;47.810;8.810;2024-01-30T17:54:59;709.25;;;551.80;;
4428;SDS011;2227;47.810;8.810;2024-01-30T17:57:26;708.53;;;553.80;;
4428;SDS011;2227;47.810;8.810;2024-01-30T17:59:52;711.63;;;561.30;;
4428;SDS011;2227;47.810;8.810;2024-01-30T18:02:19;708.80;;;556.28;;
4428;SDS011;2227;47.810;8.810;2024-01-30T18:04:46;707.58;;;552.78;;
4428;SDS011;2227;47.810;8.810;2024-01-30T18:07:13;727.42;;;559.53;;
4428;SDS011;2227;47.810;8.810;2024-01-30T18:09:40;764.85;;;573.90;;
4428;SDS011;2227;47.810;8.810;2024-01-30T18:12:07;728.20;;;558.47;;
4428;SDS011;2227;47.810;8.810;2024-01-30T18:14:36;723.35;;;547.20;;
4428;SDS011;2227;47.810;8.810;2024-01-30T18:17:03;720.40;;;551.05;;
4428;SDS011;2227;47.810;8.810;2024-01-30T18:19:30;714.85;;;544.03;;
4428;SDS011;2227;47.810;8.810;2024-01-30T18:21:57;718.90;;;540.93;;
4428;SDS011;2227;47.810;8.810;2024-01-30T18:24:25;712.40;;;539.28;;
4428;SDS011;2227;47.810;8.810;2024-01-30T18:26:53;714.05;;;538.33;;
4428;SDS011;2227;47.810;8.810;2024-01-30T18:29:21;712.80;;;542.85;;
4428;SDS011;2227;47.810;8.810;2024-01-30T18:31:48;703.38;;;537.55;;
4428;SDS011;2227;47.810;8.810;2024-01-30T18:34:15;705.67;;;543.90;;
4428;SDS011;2227;47.810;8.810;2024-01-30T18:36:42;708.58;;;548.65;;
4428;SDS011;2227;47.810;8.810;2024-01-30T18:39:10;705.03;;;548.10;;
4428;SDS011;2227;47.810;8.810;2024-01-30T18:41:37;700.67;;;541.05;;
4428;SDS011;2227;47.810;8.810;2024-01-30T18:44:03;702.60;;;546.33;;
4428;SDS011;2227;47.810;8.810;2024-01-30T18:46:30;702.85;;;551.72;;
4428;SDS011;2227;47.810;8.810;2024-01-30T18:48:58;699.55;;;549.20;;
4428;SDS011;2227;47.810;8.810;2024-01-30T18:51:25;702.63;;;556.25;;
4428;SDS011;2227;47.810;8.810;2024-01-30T18:53:52;688.03;;;546.35;;
4428;SDS011;2227;47.810;8.810;2024-01-30T18:56:19;685.20;;;539.67;;
4428;SDS011;2227;47.810;8.810;2024-01-30T18:58:46;676.88;;;535.38;;
4428;SDS011;2227;47.810;8.810;2024-01-30T19:01:13;705.03;;;559.42;;
4428;SDS011;2227;47.810;8.810;2024-01-30T19:03:40;688.10;;;548.47;;
4428;SDS011;2227;47.810;8.810;2024-01-30T19:06:07;688.25;;;546.15;;
4428;SDS011;2227;47.810;8.810;2024-01-30T19:08:36;697.38;;;548.47;;
4428;SDS011;2227;47.810;8.810;2024-01-30T19:11:03;702.35;;;551.78;;
4428;SDS011;2227;47.810;8.810;2024-01-30T19:13:30;704.05;;;550.47;;